sensor_id;sensor_type;location;lat;lon;timestamp;P1;durP1;ratioP1;P2;durP2;ratioP2
40248;SDS011;25969;49.970;11.062;2023-03-01T06:03:17;27.40;;;10.67;;
40248;SDS011;25969;49.970;11.062;2023-03-01T06:13:18;18.73;;;7.77;;
40248;SDS011;25969;49.970;11.062;2023-03-01T06:23:18;28.70;;;11.90;;
40248;SDS011;25969;49.970;11.062;2023-03-01T06:33:19;28.40;;;10.90;;
40248;SDS011;25969;49.970;11.062;2023-03-01T06:43:20;26.10;;;11.97;;
40248;SDS011;25969;49.970;11.062;2023-03-01T06:53:21;25.63;;;11.13;;
40248;SDS011;25969;49.970;11.062;2023-03-01T07:03:22;25.83;;;10.97;;
40248;SDS011;25969;49.970;11.062;2023-03-01T07:13:23;24.43;;;10.50;;
40248;SDS011;25969;49.970;11.062;2023-03-01T07:23:23;30.73;;;12.00;;
40248;SDS011;25969;49.970;11.062;2023-03-01T07:33:24;21.97;;;10.43;;
40248;SDS011;25969;49.970;11.062;2023-03-01T07:43:25;28.90;;;11.43;;
40248;SDS011;25969;49.970;11.062;2023-03-01T07:53:26;28.20;;;11.33;;
40248;SDS011;25969;49.970;11.062;2023-03-01T08:03:27;25.50;;;11.10;;
40248;SDS011;25969;49.970;11.062;2023-03-01T08:13:29;26.57;;;11.67;;
40248;SDS011;25969;49.970;11.062;2023-03-01T08:23:30;20.35;;;11.77;;
40248;SDS011;25969;49.970;11.062;2023-03-01T08:33:31;19.03;;;12.77;;
40248;SDS011;25969;49.970;11.062;2023-03-01T08:43:31;15.83;;;10.63;;
40248;SDS011;25969;49.970;11.062;2023-03-01T08:53:32;14.80;;;11.60;;
40248;SDS011;25969;49.970;11.062;2023-03-01T09:03:33;17.10;;;11.63;;
40248;SDS011;25969;49.970;11.062;2023-03-01T09:23:35;16.60;;;12.73;;
40248;SDS011;25969;49.970;11.062;2023-03-01T09:33:39;19.05;;;11.68;;
40248;SDS011;25969;49.970;11.062;2023-03-01T09:43:47;17.63;;;11.13;;
40248;SDS011;25969;49.970;11.062;2023-03-01T09:53:54;17.65;;;12.32;;
40248;SDS011;25969;49.970;11.062;2023-03-01T10:04:00;17.80;;;12.30;;
40248;SDS011;25969;49.970;11.062;2023-03-01T10:24:34;15.65;;;11.93;;
40248;SDS011;25969;49.970;11.062;2023-03-01T10:34:36;16.60;;;11.52;;
40248;SDS011;25969;49.970;11.062;2023-03-01T10:54:51;17.20;;;13.17;;
40248;SDS011;25969;49.970;11.062;2023-03-01T11:14:58;19.70;;;12.70;;
40248;SDS011;25969;49.970;11.062;2023-03-01T11:24:59;19.20;;;12.82;;
40248;SDS011;25969;49.970;11.062;2023-03-01T12:57:17;14.00;;;9.82;;
40248;SDS011;25969;49.970;11.062;2023-03-01T13:07:41;14.75;;;9.50;;
40248;SDS011;25969;49.970;11.062;2023-03-01T13:28:32;13.35;;;8.85;;
40248;SDS011;25969;49.970;11.062;2023-03-01T13:48:56;13.15;;;9.13;;
40248;SDS011;25969;49.970;11.062;2023-03-01T13:59:16;13.27;;;8.27;;
40248;SDS011;25969;49.970;11.062;2023-03-01T14:09:26;12.95;;;8.77;;
40248;SDS011;25969;49.970;11.062;2023-03-01T14:19:31;16.23;;;8.95;;
40248;SDS011;25969;49.970;11.062;2023-03-01T14:29:34;10.05;;;7.90;;
40248;SDS011;25969;49.970;11.062;2023-03-01T14:39:36;13.10;;;8.70;;
40248;SDS011;25969;49.970;11.062;2023-03-01T14:49:37;14.37;;;9.67;;
40248;SDS011;25969;49.970;11.062;2023-03-01T14:59:38;19.03;;;9.10;;
40248;SDS011;25969;49.970;11.062;2023-03-01T15:09:39;14.30;;;9.17;;
40248;SDS011;25969;49.970;11.062;2023-03-01T15:19:40;14.80;;;8.57;;
40248;SDS011;25969;49.970;11.062;2023-03-01T15:29:41;16.17;;;9.37;;
40248;SDS011;25969;49.970;11.062;2023-03-01T15:50:32;18.58;;;9.85;;
40248;SDS011;25969;49.970;11.062;2023-03-01T16:00:36;23.88;;;12.45;;
40248;SDS011;25969;49.970;11.062;2023-03-01T16:10:36;23.70;;;11.00;;
40248;SDS011;25969;49.970;11.062;2023-03-01T16:20:38;23.20;;;11.60;;
40248;SDS011;25969;49.970;11.062;2023-03-01T16:30:39;27.57;;;12.87;;
40248;SDS011;25969;49.970;11.062;2023-03-01T16:40:40;23.87;;;12.60;;
40248;SDS011;25969;49.970;11.062;2023-03-01T16:51:00;26.80;;;12.37;;
40248;SDS011;25969;49.970;11.062;2023-03-01T17:01:05;25.23;;;12.40;;
40248;SDS011;25969;49.970;11.062;2023-03-01T17:11:09;24.07;;;11.73;;
40248;SDS011;25969;49.970;11.062;2023-03-01T17:21:11;26.67;;;13.23;;
40248;SDS011;25969;49.970;11.062;2023-03-01T17:31:12;28.93;;;12.70;;
40248;SDS011;25969;49.970;11.062;2023-03-01T17:41:13;29.63;;;13.23;;
40248;SDS011;25969;49.970;11.062;2023-03-01T17:51:16;28.10;;;13.20;;
40248;SDS011;25969;49.970;11.062;2023-03-01T18:01:18;30.43;;;14.17;;
40248;SDS011;25969;49.970;11.062;2023-03-01T18:11:21;35.57;;;13.90;;
40248;SDS011;25969;49.970;11.062;2023-03-01T18:21:24;31.33;;;14.77;;
40248;SDS011;25969;49.970;11.062;2023-03-01T18:31:25;33.37;;;13.87;;
40248;SDS011;25969;49.970;11.062;2023-03-01T18:41:26;30.30;;;14.07;;
40248;SDS011;25969;49.970;11.062;2023-03-01T18:51:27;33.73;;;14.67;;
40248;SDS011;25969;49.970;11.062;2023-03-01T19:01:29;30.83;;;14.37;;
40248;SDS011;25969;49.970;11.062;2023-03-01T19:11:34;34.95;;;14.77;;
40248;SDS011;25969;49.970;11.062;2023-03-01T19:21:44;30.10;;;14.37;;
40248;SDS011;25969;49.970;11.062;2023-03-01T19:31:48;33.87;;;14.30;;
40248;SDS011;25969;49.970;11.062;2023-03-01T19:41:49;35.40;;;14.77;;
40248;SDS011;25969;49.970;11.062;2023-03-01T19:51:50;32.50;;;14.60;;
40248;SDS011;25969;49.970;11.062;2023-03-01T20:01:51;31.80;;;14.17;;
40248;SDS011;25969;49.970;11.062;2023-03-01T20:11:52;29.77;;;14.57;;
40248;SDS011;25969;49.970;11.062;2023-03-01T20:21:53;32.93;;;13.97;;
40248;SDS011;25969;49.970;11.062;2023-03-01T20:31:53;32.07;;;14.57;;
40248;SDS011;25969;49.970;11.062;2023-03-01T20:41:55;32.65;;;14.30;;
40248;SDS011;25969;49.970;11.062;2023-03-01T20:51:56;35.90;;;14.60;;
40248;SDS011;25969;49.970;11.062;2023-03-01T21:01:57;29.93;;;14.13;;
40248;SDS011;25969;49.970;11.062;2023-03-01T21:11:58;33.93;;;15.83;;
40248;SDS011;25969;49.970;11.062;2023-03-01T21:21:58;31.10;;;15.20;;
40248;SDS011;25969;49.970;11.062;2023-03-01T21:31:59;30.83;;;13.90;;
40248;SDS011;25969;49.970;11.062;2023-03-01T21:42:00;34.07;;;15.13;;
40248;SDS011;25969;49.970;11.062;2023-03-01T21:52:02;39.50;;;14.27;;
40248;SDS011;25969;49.970;11.062;2023-03-01T22:02:03;35.23;;;14.47;;
40248;SDS011;25969;49.970;11.062;2023-03-01T22:12:04;34.03;;;14.43;;
40248;SDS011;25969;49.970;11.062;2023-03-01T22:22:05;31.90;;;13.93;;
40248;SDS011;25969;49.970;11.062;2023-03-01T22:32:06;35.70;;;14.43;;
40248;SDS011;25969;49.970;11.062;2023-03-01T22:42:07;36.60;;;15.63;;
40248;SDS011;25969;49.970;11.062;2023-03-01T22:52:08;33.27;;;14.33;;
